Ellinwood, KS

5:20 AM CDT on July 10, 2014 (GMT -0500)
Hutchinson Municipal (KHUT) Elev 1542 ft | 38.07 °N, 97.86 °W | Change Station

Current weather conditions updated 8 minutes ago

Heavy Rain
Heavy Rain Mist
69 °F
Feels Like 69 °F
N
8
Wind Variable Wind from SSW

Today is forecast to be Cooler than yesterday. Morning showers and thunderstorms.

Today
High -- | Low -- °F
--% Chance of Precip.
Yesterday
High -- | Low -- °F
Precip. -- in
6:19 AM 8:59 PM
Waxing Gibbous, 94% visible
Pressure 30.10 in
Visibility 4.0 miles
Clouds Mostly Cloudy 8000 ft
Overcast 10000 ft
Dew Point 65 °F
Humidity 87%
Rainfall 0.73 in
Snow Depth Not available.
UV 0 out of 12
Pollen 3.10 out of 12
Air Quality Not available.
Flu Activity No Activity
SPECI KHUT 101012Z AUTO 21007KT 4SM +RA BR BKN080 OVC100 21/18 A3010 RMK AO2 LTG DSNT SW-N TSE06 P0006 T02060183

More Conditions Fewer Conditions

Pressure 30.10 in
Visibility 4.0 miles
Clouds Mostly Cloudy 8000 ft
Overcast 10000 ft
Dew Point 65 °F
Humidity 87%
Rainfall 0.73 in
Snow Depth Not available.
UV 0 out of 12
Pollen 3.10 out of 12
Air Quality Not available.
Flu Activity No Activity
SPECI KHUT 101012Z AUTO 21007KT 4SM +RA BR BKN080 OVC100 21/18 A3010 RMK AO2 LTG DSNT SW-N TSE06 P0006 T02060183

More Conditions Fewer Conditions

10-Day Weather Forecast

Almanac

Astronomy

Jul. 10, 2014 Rise Set
Actual Time 6:19 AM CDT 8:59 PM CDT
Civil Twilight 5:48 AM CDT 9:30 PM CDT
Nautical Twilight 5:09 AM CDT 10:09 PM CDT
Astronomical Twilight 4:25 AM CDT 10:53 PM CDT
Moon 7:14 PM CDT 4:31 AM CDT
Length of Visible Light 15h 42m
Length of Day
14h 40m
Tomorrow will be 1m 4s shorter.
Waxing Gibbous, 94% of the Moon is Illuminated
Today
Waxing Gibbous
Jul 12
Full
Jul 18
Last Quarter
Jul 26
New
Aug 3
First Quarter

Today's Extremes

State Highs State Lows

Community

WunderPhotos

Upload Photos

1,732,088 photos uploaded!

Nearby

Snow Depth

Station Depth Elevation
No new snow has been reported.

Earthquake Activity

City Distance Mag. Time & Date
Blackwell, Oklahoma 122 miles 3.1 11:55 PM CDT
2014-07-03
Cherokee, Oklahoma 114 miles 3.0 3:24 PM CDT
2014-07-03
Pawnee, Oklahoma 163 miles 2.9 11:09 AM CDT
2014-07-03
Minimum magnitude displayed is 2.5.

Coastal Water Temperatures

Place Temperature
No Stations Reporting

Nearby Weather Stations

Station Location Temp. Dew Point Humidity Wind Precip. Elev Updated Type
Ellinwood High School, Ellinwood, KS 66.0 °F 65 °F 96% SE  at  13.0 mph 0.05 in / hr 1811 ft 5:20 AM CDT Rapid Fire
Eisenhower School Area, Great Bend, KS 66.0 °F 65 °F 96% SSE  at  4.0 mph 0.02 in / hr 1860 ft 5:06 AM CDT Normal
RAWS STAFFORD KS, Hudson, KS 65 °F 64 °F 97% East  at  11 mph 0.15 in / hr 1768 ft 3:59 AM CDT MADIS

Show More Stations Show Fewer Stations